sensor_id;sensor_type;location;lat;lon;timestamp;P1;durP1;ratioP1;P2;durP2;ratioP2
18316;SDS011;9284;52.298;21.164;2023-02-01T04:11:42;7.47;;;2.47;;
18316;SDS011;9284;52.298;21.164;2023-02-01T04:14:10;17.13;;;2.60;;
18316;SDS011;9284;52.298;21.164;2023-02-01T04:16:38;19.57;;;3.27;;
18316;SDS011;9284;52.298;21.164;2023-02-01T04:19:07;12.40;;;2.53;;
18316;SDS011;9284;52.298;21.164;2023-02-01T04:21:35;14.57;;;2.83;;
18316;SDS011;9284;52.298;21.164;2023-02-01T04:24:03;9.60;;;2.77;;
18316;SDS011;9284;52.298;21.164;2023-02-01T04:26:32;8.00;;;2.37;;
18316;SDS011;9284;52.298;21.164;2023-02-01T04:29:02;7.83;;;2.60;;
18316;SDS011;9284;52.298;21.164;2023-02-01T04:31:30;14.67;;;3.87;;
18316;SDS011;9284;52.298;21.164;2023-02-01T04:33:59;13.10;;;3.53;;
18316;SDS011;9284;52.298;21.164;2023-02-01T04:36:27;11.27;;;2.77;;
18316;SDS011;9284;52.298;21.164;2023-02-01T04:38:55;14.30;;;3.70;;
18316;SDS011;9284;52.298;21.164;2023-02-01T04:41:23;10.17;;;3.40;;
18316;SDS011;9284;52.298;21.164;2023-02-01T04:43:52;12.00;;;3.80;;
18316;SDS011;9284;52.298;21.164;2023-02-01T04:46:21;24.83;;;3.60;;
18316;SDS011;9284;52.298;21.164;2023-02-01T04:48:50;19.70;;;2.90;;
18316;SDS011;9284;52.298;21.164;2023-02-01T04:51:18;17.80;;;3.37;;
18316;SDS011;9284;52.298;21.164;2023-02-01T04:53:46;9.50;;;3.03;;
18316;SDS011;9284;52.298;21.164;2023-02-01T04:56:14;12.67;;;3.47;;
18316;SDS011;9284;52.298;21.164;2023-02-01T04:58:43;14.67;;;2.93;;
18316;SDS011;9284;52.298;21.164;2023-02-01T05:01:11;12.87;;;3.10;;
18316;SDS011;9284;52.298;21.164;2023-02-01T05:03:41;11.23;;;3.67;;
18316;SDS011;9284;52.298;21.164;2023-02-01T05:06:09;23.13;;;4.33;;
18316;SDS011;9284;52.298;21.164;2023-02-01T05:08:37;16.73;;;4.87;;
18316;SDS011;9284;52.298;21.164;2023-02-01T05:11:06;18.30;;;4.50;;
18316;SDS011;9284;52.298;21.164;2023-02-01T05:13:54;10.70;;;3.77;;
18316;SDS011;9284;52.298;21.164;2023-02-01T05:16:21;11.87;;;3.83;;
18316;SDS011;9284;52.298;21.164;2023-02-01T05:18:51;11.67;;;3.40;;
18316;SDS011;9284;52.298;21.164;2023-02-01T05:21:20;13.20;;;2.83;;
18316;SDS011;9284;52.298;21.164;2023-02-01T05:23:48;10.07;;;2.40;;
18316;SDS011;9284;52.298;21.164;2023-02-01T05:26:33;8.77;;;2.87;;
18316;SDS011;9284;52.298;21.164;2023-02-01T05:29:02;9.17;;;2.57;;
18316;SDS011;9284;52.298;21.164;2023-02-01T05:31:31;11.00;;;2.27;;
18316;SDS011;9284;52.298;21.164;2023-02-01T05:34:01;17.27;;;2.93;;
18316;SDS011;9284;52.298;21.164;2023-02-01T05:36:30;19.47;;;3.30;;
18316;SDS011;9284;52.298;21.164;2023-02-01T05:38:58;14.20;;;3.47;;
18316;SDS011;9284;52.298;21.164;2023-02-01T05:41:26;11.97;;;3.23;;
18316;SDS011;9284;52.298;21.164;2023-02-01T05:43:54;8.83;;;2.87;;
18316;SDS011;9284;52.298;21.164;2023-02-01T05:46:23;15.10;;;2.33;;
18316;SDS011;9284;52.298;21.164;2023-02-01T05:48:51;18.57;;;3.47;;
18316;SDS011;9284;52.298;21.164;2023-02-01T05:51:21;14.77;;;3.20;;
18316;SDS011;9284;52.298;21.164;2023-02-01T05:53:49;12.30;;;2.67;;
18316;SDS011;9284;52.298;21.164;2023-02-01T05:56:18;10.37;;;2.90;;
18316;SDS011;9284;52.298;21.164;2023-02-01T05:58:46;14.00;;;4.43;;
18316;SDS011;9284;52.298;21.164;2023-02-01T06:01:14;11.63;;;3.30;;
18316;SDS011;9284;52.298;21.164;2023-02-01T06:03:42;22.97;;;5.93;;
18316;SDS011;9284;52.298;21.164;2023-02-01T06:06:11;21.83;;;5.20;;
18316;SDS011;9284;52.298;21.164;2023-02-01T06:08:41;17.27;;;3.50;;
18316;SDS011;9284;52.298;21.164;2023-02-01T06:11:09;13.10;;;2.67;;
18316;SDS011;9284;52.298;21.164;2023-02-01T06:13:48;16.53;;;3.00;;
18316;SDS011;9284;52.298;21.164;2023-02-01T06:16:17;11.33;;;2.87;;
18316;SDS011;9284;52.298;21.164;2023-02-01T06:18:45;12.00;;;2.60;;
18316;SDS011;9284;52.298;21.164;2023-02-01T06:21:13;14.63;;;3.20;;
18316;SDS011;9284;52.298;21.164;2023-02-01T06:23:52;8.93;;;2.70;;
18316;SDS011;9284;52.298;21.164;2023-02-01T06:26:21;14.77;;;2.47;;
18316;SDS011;9284;52.298;21.164;2023-02-01T06:28:50;13.47;;;3.23;;
18316;SDS011;9284;52.298;21.164;2023-02-01T06:31:18;16.30;;;3.33;;
18316;SDS011;9284;52.298;21.164;2023-02-01T06:33:47;13.63;;;2.70;;
18316;SDS011;9284;52.298;21.164;2023-02-01T06:36:15;17.20;;;4.57;;
18316;SDS011;9284;52.298;21.164;2023-02-01T06:38:45;15.60;;;2.73;;
18316;SDS011;9284;52.298;21.164;2023-02-01T06:41:14;10.30;;;3.20;;
18316;SDS011;9284;52.298;21.164;2023-02-01T06:43:43;14.23;;;2.90;;
18316;SDS011;9284;52.298;21.164;2023-02-01T06:46:14;10.37;;;3.83;;
18316;SDS011;9284;52.298;21.164;2023-02-01T06:48:42;10.17;;;3.23;;
18316;SDS011;9284;52.298;21.164;2023-02-01T06:51:18;7.47;;;2.87;;
18316;SDS011;9284;52.298;21.164;2023-02-01T06:53:48;17.27;;;3.70;;
18316;SDS011;9284;52.298;21.164;2023-02-01T06:56:17;13.60;;;3.37;;
18316;SDS011;9284;52.298;21.164;2023-02-01T06:58:48;13.10;;;2.67;;
18316;SDS011;9284;52.298;21.164;2023-02-01T07:01:16;10.37;;;3.40;;
18316;SDS011;9284;52.298;21.164;2023-02-01T07:03:46;8.83;;;2.67;;
18316;SDS011;9284;52.298;21.164;2023-02-01T07:06:17;16.60;;;3.27;;
18316;SDS011;9284;52.298;21.164;2023-02-01T07:08:46;11.63;;;3.23;;
18316;SDS011;9284;52.298;21.164;2023-02-01T07:11:15;12.70;;;3.40;;
18316;SDS011;9284;52.298;21.164;2023-02-01T07:13:46;13.00;;;2.77;;
18316;SDS011;9284;52.298;21.164;2023-02-01T07:16:15;8.87;;;2.93;;
18316;SDS011;9284;52.298;21.164;2023-02-01T07:18:45;10.93;;;3.10;;
18316;SDS011;9284;52.298;21.164;2023-02-01T07:21:13;15.50;;;3.53;;
18316;SDS011;9284;52.298;21.164;2023-02-01T07:23:41;8.90;;;2.73;;
18316;SDS011;9284;52.298;21.164;2023-02-01T07:26:10;7.07;;;3.10;;
18316;SDS011;9284;52.298;21.164;2023-02-01T07:28:40;12.67;;;3.17;;
18316;SDS011;9284;52.298;21.164;2023-02-01T07:31:11;13.10;;;2.83;;
18316;SDS011;9284;52.298;21.164;2023-02-01T07:33:41;10.10;;;4.30;;
18316;SDS011;9284;52.298;21.164;2023-02-01T07:36:11;16.50;;;3.90;;
18316;SDS011;9284;52.298;21.164;2023-02-01T07:38:40;13.80;;;3.67;;
18316;SDS011;9284;52.298;21.164;2023-02-01T07:41:09;11.73;;;3.33;;
18316;SDS011;9284;52.298;21.164;2023-02-01T07:43:38;13.93;;;3.90;;
18316;SDS011;9284;52.298;21.164;2023-02-01T07:46:06;19.93;;;4.83;;
18316;SDS011;9284;52.298;21.164;2023-02-01T07:48:36;15.07;;;3.77;;
18316;SDS011;9284;52.298;21.164;2023-02-01T07:51:07;16.97;;;3.87;;
18316;SDS011;9284;52.298;21.164;2023-02-01T07:53:37;13.13;;;3.47;;
18316;SDS011;9284;52.298;21.164;2023-02-01T07:56:09;15.00;;;3.43;;
18316;SDS011;9284;52.298;21.164;2023-02-01T07:58:39;10.57;;;3.33;;
18316;SDS011;9284;52.298;21.164;2023-02-01T08:01:11;13.50;;;3.83;;
18316;SDS011;9284;52.298;21.164;2023-02-01T08:03:50;15.80;;;3.47;;
18316;SDS011;9284;52.298;21.164;2023-02-01T08:06:19;12.43;;;3.70;;
18316;SDS011;9284;52.298;21.164;2023-02-01T08:08:48;12.87;;;3.20;;
18316;SDS011;9284;52.298;21.164;2023-02-01T08:11:17;16.63;;;3.37;;
18316;SDS011;9284;52.298;21.164;2023-02-01T08:13:46;16.10;;;3.67;;
18316;SDS011;9284;52.298;21.164;2023-02-01T08:16:16;19.03;;;4.40;;
18316;SDS011;9284;52.298;21.164;2023-02-01T08:18:45;21.60;;;6.20;;
18316;SDS011;9284;52.298;21.164;2023-02-01T08:21:15;16.03;;;4.20;;
18316;SDS011;9284;52.298;21.164;2023-02-01T08:23:45;17.33;;;4.87;;
18316;SDS011;9284;52.298;21.164;2023-02-01T08:26:14;16.80;;;4.77;;
18316;SDS011;9284;52.298;21.164;2023-02-01T08:28:45;20.13;;;4.17;;
18316;SDS011;9284;52.298;21.164;2023-02-01T08:31:17;16.17;;;3.87;;
18316;SDS011;9284;52.298;21.164;2023-02-01T08:33:48;25.27;;;4.70;;
18316;SDS011;9284;52.298;21.164;2023-02-01T08:36:21;16.63;;;3.77;;
18316;SDS011;9284;52.298;21.164;2023-02-01T08:38:50;20.13;;;4.47;;
18316;SDS011;9284;52.298;21.164;2023-02-01T08:41:19;25.90;;;5.03;;
18316;SDS011;9284;52.298;21.164;2023-02-01T08:43:49;18.27;;;4.97;;
18316;SDS011;9284;52.298;21.164;2023-02-01T08:46:18;16.20;;;3.43;;
18316;SDS011;9284;52.298;21.164;2023-02-01T08:48:46;11.87;;;3.60;;
18316;SDS011;9284;52.298;21.164;2023-02-01T08:51:16;13.17;;;4.07;;
18316;SDS011;9284;52.298;21.164;2023-02-01T08:53:47;19.17;;;4.83;;
18316;SDS011;9284;52.298;21.164;2023-02-01T08:56:16;15.47;;;4.30;;
18316;SDS011;9284;52.298;21.164;2023-02-01T08:58:46;18.83;;;3.73;;
18316;SDS011;9284;52.298;21.164;2023-02-01T09:01:15;17.10;;;3.70;;
18316;SDS011;9284;52.298;21.164;2023-02-01T09:03:44;16.77;;;4.97;;
18316;SDS011;9284;52.298;21.164;2023-02-01T09:06:13;18.23;;;3.80;;
18316;SDS011;9284;52.298;21.164;2023-02-01T09:08:42;19.93;;;5.07;;
18316;SDS011;9284;52.298;21.164;2023-02-01T09:11:13;17.20;;;4.87;;
18316;SDS011;9284;52.298;21.164;2023-02-01T09:13:42;24.80;;;5.17;;
18316;SDS011;9284;52.298;21.164;2023-02-01T09:16:11;17.13;;;4.30;;
18316;SDS011;9284;52.298;21.164;2023-02-01T09:18:40;19.20;;;4.47;;
18316;SDS011;9284;52.298;21.164;2023-02-01T09:21:27;13.93;;;4.00;;
18316;SDS011;9284;52.298;21.164;2023-02-01T09:23:55;16.33;;;4.77;;
18316;SDS011;9284;52.298;21.164;2023-02-01T09:26:25;18.13;;;5.07;;
18316;SDS011;9284;52.298;21.164;2023-02-01T09:28:58;14.03;;;4.27;;
18316;SDS011;9284;52.298;21.164;2023-02-01T09:31:27;21.70;;;4.27;;
18316;SDS011;9284;52.298;21.164;2023-02-01T09:33:55;19.23;;;4.27;;
18316;SDS011;9284;52.298;21.164;2023-02-01T09:36:24;23.63;;;4.57;;
18316;SDS011;9284;52.298;21.164;2023-02-01T09:38:55;18.60;;;4.30;;
18316;SDS011;9284;52.298;21.164;2023-02-01T09:41:29;14.17;;;3.80;;
18316;SDS011;9284;52.298;21.164;2023-02-01T09:44:08;25.87;;;4.97;;
18316;SDS011;9284;52.298;21.164;2023-02-01T09:46:45;18.40;;;4.63;;
18316;SDS011;9284;52.298;21.164;2023-02-01T09:49:16;17.10;;;4.07;;
18316;SDS011;9284;52.298;21.164;2023-02-01T09:51:49;17.20;;;3.70;;
18316;SDS011;9284;52.298;21.164;2023-02-01T09:54:20;17.30;;;3.60;;
18316;SDS011;9284;52.298;21.164;2023-02-01T09:56:53;17.40;;;4.97;;
18316;SDS011;9284;52.298;21.164;2023-02-01T09:59:29;14.67;;;3.70;;
18316;SDS011;9284;52.298;21.164;2023-02-01T10:02:03;16.47;;;4.57;;
18316;SDS011;9284;52.298;21.164;2023-02-01T10:04:37;15.80;;;4.63;;
18316;SDS011;9284;52.298;21.164;2023-02-01T10:07:08;18.50;;;4.10;;
18316;SDS011;9284;52.298;21.164;2023-02-01T10:09:46;12.87;;;3.30;;
18316;SDS011;9284;52.298;21.164;2023-02-01T10:12:31;15.50;;;4.13;;
18316;SDS011;9284;52.298;21.164;2023-02-01T10:15:35;20.77;;;3.83;;
18316;SDS011;9284;52.298;21.164;2023-02-01T10:18:15;9.13;;;3.00;;
18316;SDS011;9284;52.298;21.164;2023-02-01T10:20:59;12.40;;;3.77;;
18316;SDS011;9284;52.298;21.164;2023-02-01T10:23:49;12.33;;;3.37;;
18316;SDS011;9284;52.298;21.164;2023-02-01T10:26:44;11.97;;;3.80;;
18316;SDS011;9284;52.298;21.164;2023-02-01T10:29:18;16.43;;;4.87;;
18316;SDS011;9284;52.298;21.164;2023-02-01T10:31:48;12.93;;;3.63;;
18316;SDS011;9284;52.298;21.164;2023-02-01T10:34:18;13.67;;;3.30;;
18316;SDS011;9284;52.298;21.164;2023-02-01T10:36:52;12.60;;;4.30;;
18316;SDS011;9284;52.298;21.164;2023-02-01T10:39:23;16.70;;;4.90;;
18316;SDS011;9284;52.298;21.164;2023-02-01T10:41:51;14.93;;;3.90;;
18316;SDS011;9284;52.298;21.164;2023-02-01T10:44:24;20.55;;;7.20;;
18316;SDS011;9284;52.298;21.164;2023-02-01T10:46:55;23.40;;;6.53;;
18316;SDS011;9284;52.298;21.164;2023-02-01T10:49:24;13.10;;;4.20;;
18316;SDS011;9284;52.298;21.164;2023-02-01T10:52:00;21.17;;;4.00;;
18316;SDS011;9284;52.298;21.164;2023-02-01T10:54:39;17.23;;;3.73;;
18316;SDS011;9284;52.298;21.164;2023-02-01T10:57:09;13.00;;;4.40;;
18316;SDS011;9284;52.298;21.164;2023-02-01T10:59:39;9.27;;;4.10;;
18316;SDS011;9284;52.298;21.164;2023-02-01T11:02:15;16.13;;;3.60;;
18316;SDS011;9284;52.298;21.164;2023-02-01T11:04:47;19.07;;;6.03;;
18316;SDS011;9284;52.298;21.164;2023-02-01T11:07:16;15.67;;;4.53;;
18316;SDS011;9284;52.298;21.164;2023-02-01T11:09:48;20.65;;;5.85;;
18316;SDS011;9284;52.298;21.164;2023-02-01T11:12:23;16.13;;;6.03;;
18316;SDS011;9284;52.298;21.164;2023-02-01T11:15:00;17.77;;;4.35;;
18316;SDS011;9284;52.298;21.164;2023-02-01T11:17:40;14.20;;;3.60;;
18316;SDS011;9284;52.298;21.164;2023-02-01T11:20:13;15.40;;;4.13;;
18316;SDS011;9284;52.298;21.164;2023-02-01T11:22:45;15.13;;;4.70;;
18316;SDS011;9284;52.298;21.164;2023-02-01T11:25:16;16.53;;;5.00;;
18316;SDS011;9284;52.298;21.164;2023-02-01T11:27:45;19.65;;;5.78;;
18316;SDS011;9284;52.298;21.164;2023-02-01T11:30:26;20.67;;;5.25;;
18316;SDS011;9284;52.298;21.164;2023-02-01T11:33:00;19.93;;;4.93;;
18316;SDS011;9284;52.298;21.164;2023-02-01T11:35:32;19.37;;;6.60;;
18316;SDS011;9284;52.298;21.164;2023-02-01T11:38:10;25.93;;;5.27;;
18316;SDS011;9284;52.298;21.164;2023-02-01T11:40:41;18.17;;;5.10;;
18316;SDS011;9284;52.298;21.164;2023-02-01T11:45:57;19.17;;;4.00;;
18316;SDS011;9284;52.298;21.164;2023-02-01T11:48:27;19.03;;;4.30;;
18316;SDS011;9284;52.298;21.164;2023-02-01T11:51:02;13.43;;;3.63;;
18316;SDS011;9284;52.298;21.164;2023-02-01T11:53:54;16.35;;;4.15;;
18316;SDS011;9284;52.298;21.164;2023-02-01T11:56:35;14.95;;;4.47;;
18316;SDS011;9284;52.298;21.164;2023-02-01T11:59:09;14.40;;;3.78;;
18316;SDS011;9284;52.298;21.164;2023-02-01T12:01:55;12.30;;;3.97;;
18316;SDS011;9284;52.298;21.164;2023-02-01T12:05:05;13.93;;;4.07;;
18316;SDS011;9284;52.298;21.164;2023-02-01T12:07:56;12.73;;;3.22;;
18316;SDS011;9284;52.298;21.164;2023-02-01T12:10:43;11.57;;;3.70;;
18316;SDS011;9284;52.298;21.164;2023-02-01T12:13:27;13.48;;;3.60;;
18316;SDS011;9284;52.298;21.164;2023-02-01T12:16:09;11.65;;;3.97;;
18316;SDS011;9284;52.298;21.164;2023-02-01T12:21:52;14.40;;;4.68;;
18316;SDS011;9284;52.298;21.164;2023-02-01T12:24:33;14.67;;;3.83;;
18316;SDS011;9284;52.298;21.164;2023-02-01T12:27:36;19.65;;;4.05;;
18316;SDS011;9284;52.298;21.164;2023-02-01T12:33:35;11.83;;;4.70;;
18316;SDS011;9284;52.298;21.164;2023-02-01T12:36:21;10.20;;;4.40;;
18316;SDS011;9284;52.298;21.164;2023-02-01T12:38:57;16.90;;;4.83;;
18316;SDS011;9284;52.298;21.164;2023-02-01T12:41:42;16.17;;;4.53;;
18316;SDS011;9284;52.298;21.164;2023-02-01T12:44:20;14.18;;;3.47;;
18316;SDS011;9284;52.298;21.164;2023-02-01T12:46:57;13.25;;;3.80;;
18316;SDS011;9284;52.298;21.164;2023-02-01T12:49:30;10.07;;;2.83;;
18316;SDS011;9284;52.298;21.164;2023-02-01T12:52:06;15.40;;;3.00;;
18316;SDS011;9284;52.298;21.164;2023-02-01T12:54:41;7.70;;;3.22;;
18316;SDS011;9284;52.298;21.164;2023-02-01T12:57:15;11.48;;;3.85;;
18316;SDS011;9284;52.298;21.164;2023-02-01T12:59:47;13.48;;;4.50;;
18316;SDS011;9284;52.298;21.164;2023-02-01T13:02:19;13.50;;;3.90;;
18316;SDS011;9284;52.298;21.164;2023-02-01T13:04:55;10.85;;;3.58;;
18316;SDS011;9284;52.298;21.164;2023-02-01T13:07:34;12.05;;;3.78;;
18316;SDS011;9284;52.298;21.164;2023-02-01T13:10:11;16.95;;;4.05;;
18316;SDS011;9284;52.298;21.164;2023-02-01T13:12:45;14.48;;;4.15;;
18316;SDS011;9284;52.298;21.164;2023-02-01T13:15:20;10.80;;;3.90;;
18316;SDS011;9284;52.298;21.164;2023-02-01T13:17:52;15.65;;;4.20;;
18316;SDS011;9284;52.298;21.164;2023-02-01T13:20:23;15.10;;;4.18;;
18316;SDS011;9284;52.298;21.164;2023-02-01T13:22:59;13.27;;;3.67;;
18316;SDS011;9284;52.298;21.164;2023-02-01T13:25:32;18.27;;;4.03;;
18316;SDS011;9284;52.298;21.164;2023-02-01T13:28:10;20.65;;;4.43;;
18316;SDS011;9284;52.298;21.164;2023-02-01T13:30:47;12.15;;;3.70;;
18316;SDS011;9284;52.298;21.164;2023-02-01T13:33:40;20.58;;;4.15;;
18316;SDS011;9284;52.298;21.164;2023-02-01T13:36:34;16.08;;;4.20;;
18316;SDS011;9284;52.298;21.164;2023-02-01T13:42:16;14.23;;;4.68;;
18316;SDS011;9284;52.298;21.164;2023-02-01T13:44:48;21.08;;;5.55;;
18316;SDS011;9284;52.298;21.164;2023-02-01T13:47:22;18.27;;;5.50;;
18316;SDS011;9284;52.298;21.164;2023-02-01T13:49:55;14.75;;;3.67;;
18316;SDS011;9284;52.298;21.164;2023-02-01T13:52:31;15.38;;;5.13;;
18316;SDS011;9284;52.298;21.164;2023-02-01T13:55:19;15.23;;;5.53;;
18316;SDS011;9284;52.298;21.164;2023-02-01T13:58:01;16.20;;;5.85;;
18316;SDS011;9284;52.298;21.164;2023-02-01T14:00:40;20.48;;;6.07;;
18316;SDS011;9284;52.298;21.164;2023-02-01T14:03:15;10.27;;;4.38;;
18316;SDS011;9284;52.298;21.164;2023-02-01T14:05:59;17.77;;;5.80;;
18316;SDS011;9284;52.298;21.164;2023-02-01T14:08:43;18.50;;;6.22;;
18316;SDS011;9284;52.298;21.164;2023-02-01T14:11:39;12.27;;;5.03;;
18316;SDS011;9284;52.298;21.164;2023-02-01T14:23:26;15.33;;;4.73;;
18316;SDS011;9284;52.298;21.164;2023-02-01T14:26:08;17.45;;;4.88;;
18316;SDS011;9284;52.298;21.164;2023-02-01T14:28:49;13.13;;;4.80;;
18316;SDS011;9284;52.298;21.164;2023-02-01T14:31:33;16.50;;;5.03;;
18316;SDS011;9284;52.298;21.164;2023-02-01T14:34:21;15.48;;;4.75;;
18316;SDS011;9284;52.298;21.164;2023-02-01T14:36:56;11.87;;;4.30;;
18316;SDS011;9284;52.298;21.164;2023-02-01T14:39:27;16.17;;;5.13;;
18316;SDS011;9284;52.298;21.164;2023-02-01T14:42:00;16.87;;;5.70;;
18316;SDS011;9284;52.298;21.164;2023-02-01T14:44:36;14.57;;;4.97;;
18316;SDS011;9284;52.298;21.164;2023-02-01T14:47:28;13.43;;;5.00;;
18316;SDS011;9284;52.298;21.164;2023-02-01T14:50:10;10.53;;;4.70;;
18316;SDS011;9284;52.298;21.164;2023-02-01T14:52:59;18.50;;;6.63;;
18316;SDS011;9284;52.298;21.164;2023-02-01T14:55:35;13.77;;;4.80;;
18316;SDS011;9284;52.298;21.164;2023-02-01T14:58:13;12.60;;;4.83;;
18316;SDS011;9284;52.298;21.164;2023-02-01T15:00:49;15.97;;;4.97;;
18316;SDS011;9284;52.298;21.164;2023-02-01T15:03:23;17.90;;;6.27;;
18316;SDS011;9284;52.298;21.164;2023-02-01T15:06:01;16.20;;;4.93;;
18316;SDS011;9284;52.298;21.164;2023-02-01T15:08:33;14.63;;;5.10;;
18316;SDS011;9284;52.298;21.164;2023-02-01T15:11:06;18.80;;;6.23;;
18316;SDS011;9284;52.298;21.164;2023-02-01T15:13:47;17.27;;;5.93;;
18316;SDS011;9284;52.298;21.164;2023-02-01T15:16:21;16.67;;;6.17;;
18316;SDS011;9284;52.298;21.164;2023-02-01T15:19:06;14.00;;;5.07;;
18316;SDS011;9284;52.298;21.164;2023-02-01T15:21:44;11.47;;;3.90;;
18316;SDS011;9284;52.298;21.164;2023-02-01T15:24:15;11.27;;;4.10;;
18316;SDS011;9284;52.298;21.164;2023-02-01T15:26:48;8.07;;;3.77;;
18316;SDS011;9284;52.298;21.164;2023-02-01T15:29:17;7.77;;;4.20;;
18316;SDS011;9284;52.298;21.164;2023-02-01T15:31:49;8.70;;;3.80;;
18316;SDS011;9284;52.298;21.164;2023-02-01T15:34:20;12.73;;;5.10;;
18316;SDS011;9284;52.298;21.164;2023-02-01T15:36:49;15.77;;;5.87;;
18316;SDS011;9284;52.298;21.164;2023-02-01T15:39:29;14.90;;;6.13;;
18316;SDS011;9284;52.298;21.164;2023-02-01T15:41:59;14.23;;;6.03;;
18316;SDS011;9284;52.298;21.164;2023-02-01T15:44:37;14.20;;;5.80;;
18316;SDS011;9284;52.298;21.164;2023-02-01T15:47:12;6.93;;;3.63;;
18316;SDS011;9284;52.298;21.164;2023-02-01T15:49:44;11.23;;;5.53;;
18316;SDS011;9284;52.298;21.164;2023-02-01T15:52:22;17.63;;;6.90;;
18316;SDS011;9284;52.298;21.164;2023-02-01T15:54:55;13.23;;;6.00;;
18316;SDS011;9284;52.298;21.164;2023-02-01T15:57:27;11.90;;;5.43;;
18316;SDS011;9284;52.298;21.164;2023-02-01T15:59:58;9.93;;;5.10;;
18316;SDS011;9284;52.298;21.164;2023-02-01T16:02:42;11.80;;;5.43;;
18316;SDS011;9284;52.298;21.164;2023-02-01T16:05:27;15.87;;;7.13;;
18316;SDS011;9284;52.298;21.164;2023-02-01T16:08:00;12.40;;;5.37;;
18316;SDS011;9284;52.298;21.164;2023-02-01T16:10:31;14.07;;;5.00;;
18316;SDS011;9284;52.298;21.164;2023-02-01T16:13:07;12.50;;;5.60;;
18316;SDS011;9284;52.298;21.164;2023-02-01T16:15:35;14.53;;;5.80;;
18316;SDS011;9284;52.298;21.164;2023-02-01T16:18:05;9.83;;;5.27;;
18316;SDS011;9284;52.298;21.164;2023-02-01T16:20:34;13.17;;;5.57;;
18316;SDS011;9284;52.298;21.164;2023-02-01T16:23:03;13.77;;;5.60;;
18316;SDS011;9284;52.298;21.164;2023-02-01T16:25:32;20.43;;;7.47;;
18316;SDS011;9284;52.298;21.164;2023-02-01T16:28:01;12.80;;;6.27;;
18316;SDS011;9284;52.298;21.164;2023-02-01T16:30:29;14.03;;;5.50;;
18316;SDS011;9284;52.298;21.164;2023-02-01T16:32:58;13.30;;;6.03;;
18316;SDS011;9284;52.298;21.164;2023-02-01T16:35:31;12.03;;;5.90;;
18316;SDS011;9284;52.298;21.164;2023-02-01T16:38:02;13.20;;;6.70;;
18316;SDS011;9284;52.298;21.164;2023-02-01T16:40:35;11.27;;;5.40;;
18316;SDS011;9284;52.298;21.164;2023-02-01T16:43:07;15.07;;;6.70;;
18316;SDS011;9284;52.298;21.164;2023-02-01T16:45:40;9.50;;;5.87;;
18316;SDS011;9284;52.298;21.164;2023-02-01T16:48:11;14.20;;;5.47;;
18316;SDS011;9284;52.298;21.164;2023-02-01T16:50:49;15.03;;;6.03;;
18316;SDS011;9284;52.298;21.164;2023-02-01T16:53:20;13.77;;;5.80;;
18316;SDS011;9284;52.298;21.164;2023-02-01T16:55:48;14.03;;;6.10;;
18316;SDS011;9284;52.298;21.164;2023-02-01T16:58:18;17.43;;;6.63;;
18316;SDS011;9284;52.298;21.164;2023-02-01T17:00:48;10.53;;;6.20;;
18316;SDS011;9284;52.298;21.164;2023-02-01T17:03:17;14.13;;;6.27;;
18316;SDS011;9284;52.298;21.164;2023-02-01T17:05:49;15.03;;;7.03;;
18316;SDS011;9284;52.298;21.164;2023-02-01T17:08:21;14.63;;;6.00;;
18316;SDS011;9284;52.298;21.164;2023-02-01T17:10:54;12.80;;;6.40;;
18316;SDS011;9284;52.298;21.164;2023-02-01T17:13:23;13.67;;;5.70;;
18316;SDS011;9284;52.298;21.164;2023-02-01T17:15:52;15.00;;;6.27;;
18316;SDS011;9284;52.298;21.164;2023-02-01T17:18:24;14.77;;;6.47;;
18316;SDS011;9284;52.298;21.164;2023-02-01T17:20:58;12.80;;;5.63;;
18316;SDS011;9284;52.298;21.164;2023-02-01T17:23:28;15.30;;;6.00;;
18316;SDS011;9284;52.298;21.164;2023-02-01T17:25:57;15.63;;;6.37;;
18316;SDS011;9284;52.298;21.164;2023-02-01T17:28:26;13.07;;;6.07;;
18316;SDS011;9284;52.298;21.164;2023-02-01T17:30:54;13.13;;;6.27;;
18316;SDS011;9284;52.298;21.164;2023-02-01T17:33:25;13.90;;;6.33;;
18316;SDS011;9284;52.298;21.164;2023-02-01T17:36:03;11.90;;;5.97;;
18316;SDS011;9284;52.298;21.164;2023-02-01T17:38:32;12.63;;;6.63;;
18316;SDS011;9284;52.298;21.164;2023-02-01T17:41:01;12.97;;;5.97;;
18316;SDS011;9284;52.298;21.164;2023-02-01T17:43:29;14.77;;;6.67;;
18316;SDS011;9284;52.298;21.164;2023-02-01T17:45:58;13.50;;;5.80;;
18316;SDS011;9284;52.298;21.164;2023-02-01T17:48:30;12.70;;;5.57;;
18316;SDS011;9284;52.298;21.164;2023-02-01T17:50:58;13.73;;;6.07;;
18316;SDS011;9284;52.298;21.164;2023-02-01T17:53:29;10.50;;;5.33;;
18316;SDS011;9284;52.298;21.164;2023-02-01T17:55:59;12.37;;;6.30;;
18316;SDS011;9284;52.298;21.164;2023-02-01T17:58:27;17.63;;;7.00;;
18316;SDS011;9284;52.298;21.164;2023-02-01T18:00:59;12.93;;;6.43;;
18316;SDS011;9284;52.298;21.164;2023-02-01T18:03:28;17.67;;;7.70;;
18316;SDS011;9284;52.298;21.164;2023-02-01T18:05:58;15.80;;;7.20;;
18316;SDS011;9284;52.298;21.164;2023-02-01T18:08:27;15.23;;;6.97;;
18316;SDS011;9284;52.298;21.164;2023-02-01T18:10:59;13.40;;;6.13;;
18316;SDS011;9284;52.298;21.164;2023-02-01T18:13:29;14.43;;;7.70;;
18316;SDS011;9284;52.298;21.164;2023-02-01T18:15:58;16.60;;;7.10;;
18316;SDS011;9284;52.298;21.164;2023-02-01T18:18:29;14.07;;;7.30;;
18316;SDS011;9284;52.298;21.164;2023-02-01T18:20:59;19.83;;;10.03;;
18316;SDS011;9284;52.298;21.164;2023-02-01T18:23:29;20.83;;;10.33;;
18316;SDS011;9284;52.298;21.164;2023-02-01T18:25:58;40.43;;;14.87;;
18316;SDS011;9284;52.298;21.164;2023-02-01T18:28:26;22.07;;;10.80;;
18316;SDS011;9284;52.298;21.164;2023-02-01T18:30:54;28.40;;;13.17;;
18316;SDS011;9284;52.298;21.164;2023-02-01T18:33:23;26.97;;;12.17;;
18316;SDS011;9284;52.298;21.164;2023-02-01T18:35:51;27.63;;;11.43;;
18316;SDS011;9284;52.298;21.164;2023-02-01T18:38:19;23.17;;;10.00;;
18316;SDS011;9284;52.298;21.164;2023-02-01T18:40:50;16.83;;;7.33;;
18316;SDS011;9284;52.298;21.164;2023-02-01T18:43:21;29.67;;;11.57;;
18316;SDS011;9284;52.298;21.164;2023-02-01T18:45:50;22.83;;;9.33;;
18316;SDS011;9284;52.298;21.164;2023-02-01T18:48:18;27.53;;;11.17;;
18316;SDS011;9284;52.298;21.164;2023-02-01T18:50:47;17.67;;;7.93;;
18316;SDS011;9284;52.298;21.164;2023-02-01T18:53:22;16.67;;;7.73;;
18316;SDS011;9284;52.298;21.164;2023-02-01T18:55:54;17.33;;;7.80;;
18316;SDS011;9284;52.298;21.164;2023-02-01T18:58:24;27.27;;;10.33;;
18316;SDS011;9284;52.298;21.164;2023-02-01T19:00:53;23.43;;;10.00;;
18316;SDS011;9284;52.298;21.164;2023-02-01T19:03:22;21.90;;;9.13;;
18316;SDS011;9284;52.298;21.164;2023-02-01T19:05:53;23.27;;;9.27;;
18316;SDS011;9284;52.298;21.164;2023-02-01T19:08:22;19.93;;;7.70;;
18316;SDS011;9284;52.298;21.164;2023-02-01T19:10:51;18.10;;;8.10;;
18316;SDS011;9284;52.298;21.164;2023-02-01T19:13:21;15.93;;;6.63;;
18316;SDS011;9284;52.298;21.164;2023-02-01T19:15:53;14.40;;;6.77;;
18316;SDS011;9284;52.298;21.164;2023-02-01T19:18:21;11.67;;;6.03;;
18316;SDS011;9284;52.298;21.164;2023-02-01T19:20:50;18.20;;;6.57;;
18316;SDS011;9284;52.298;21.164;2023-02-01T19:23:20;16.50;;;6.80;;
18316;SDS011;9284;52.298;21.164;2023-02-01T19:25:49;13.63;;;6.30;;
18316;SDS011;9284;52.298;21.164;2023-02-01T19:28:17;13.40;;;6.30;;
18316;SDS011;9284;52.298;21.164;2023-02-01T19:30:47;16.20;;;6.93;;
18316;SDS011;9284;52.298;21.164;2023-02-01T19:33:15;20.07;;;7.37;;
18316;SDS011;9284;52.298;21.164;2023-02-01T19:35:44;12.83;;;6.10;;
18316;SDS011;9284;52.298;21.164;2023-02-01T19:38:12;22.03;;;7.47;;
18316;SDS011;9284;52.298;21.164;2023-02-01T19:40:40;16.23;;;5.97;;